This is the latest recevied weather packets stored in our database for station/object OM4MO-10. If no packets are shown the sender has not sent any weather packets the latest 10 day(s).
| Time | Temp. | Humidity | Pressure | Rain* | Wind** | Luminosity | Snow |
|---|---|---|---|---|---|---|---|
| 1777837875 | 11.11° C | 100% | 1019.9 hPa | - | - | - | - |
| 1777836675 | 10.56° C | 100% | 1019.8 hPa | - | - | - | - |
| 1777835475 | 10° C | 100% | 1011.2 hPa | - | - | - | - |
| 1777834275 | 11.67° C | 84% | 1013.8 hPa | - | - | - | - |
| 1777833075 | 13.33° C | 68% | 1016.4 hPa | - | - | - | - |
| 1777831875 | 13.89° C | 65% | 1017.1 hPa | - | - | - | - |
| 1777830675 | 15° C | 58% | 1019.1 hPa | - | - | - | - |
| 1777829474 | 15.56° C | 52% | 1021.4 hPa | - | - | - | - |
| 1777828274 | 17.22° C | 43% | 1026.3 hPa | - | - | - | - |
| 1777827074 | 22.78° C | 31% | 1033.1 hPa | - | - | - | - |
| 1777825874 | 21.11° C | 31% | 1034.8 hPa | - | - | - | - |
| 1777824674 | 21.11° C | 29% | 1035.1 hPa | - | - | - | - |
| 1777823474 | 22.78° C | 31% | 1035 hPa | - | - | - | - |
| 1777822274 | 22.22° C | 27% | 1035.8 hPa | - | - | - | - |
| 1777821074 | 21.67° C | 29% | 1036.7 hPa | - | - | - | - |
| 1777819873 | 22.22° C | 30% | 1036.3 hPa | - | - | - | - |
| 1777818673 | 22.22° C | 28% | 1037.6 hPa | - | - | - | - |
| 1777817473 | 22.78° C | 27% | 1038.7 hPa | - | - | - | - |
| 1777816273 | 22.22° C | 27% | 1038.8 hPa | - | - | - | - |
| 1777815073 | 22.22° C | 28% | 1039 hPa | - | - | - | - |
| 1777813873 | 22.22° C | 29% | 1038.5 hPa | - | - | - | - |
| 1777812673 | 22.22° C | 28% | 1039 hPa | - | - | - | - |
| 1777811473 | 21.67° C | 28% | 1039 hPa | - | - | - | - |
| 1777810272 | 21.67° C | 30% | 1038.3 hPa | - | - | - | - |
| 1777809072 | 21.67° C | 31% | 1037.5 hPa | - | - | - | - |
* Rain since midnight (hover to see other rain measurements)
** Current wind speed in m/s (hover to see current wind gust speed)